Woodbury, North Dakota
Current Conditions -  °F | °C
As of 8:14 AM on Friday 19 Dec 2014 (Local Time) from KJMS Reporting Station
Haze Haze  
Wind Chill: 14°   Ceiling: 300
Heat Index: 25°   Visibility: 2.5mi
Dew Point: 24°   Wind: 13mph
Humidity: 96%   Direction: 190°S
Pressure: 29.99"   Gusts: NA
Location:  46.8494°N, 98.7424°W
Report Text: KJMS 191414Z AUTO 19011KT 2 1/2SM BR OVC003 M04/M04 A2999 RMK AO2 T10391044
Loading
Personal Weather Stations






























Interactive Weather Map New forecast layout! Learn more

10-Day Weather Forecast

Advertisements
Track Severe Weather on mobile